Time;durP1;ratioP1;P1;durP2;ratioP2;P2;SDS_P1;SDS_P2;PMS_P1;PMS_P2;Temp;Humidity;BMP_temperature;BMP_pressure;BME280_temperature;BME280_humidity;BME280_pressure;Samples;Min_cycle;Max_cycle;Signal;HPM_P1;HPM_P2
2022/07/20 00:00:39;;;;;;;;;18.33;18.33;;;;;30.57;38.42;101146.81;5076898;27;45481;-79
2022/07/20 00:03:06;;;;;;;;;18.33;17.33;;;;;30.37;38.29;101111.63;5072721;27;45477;-79
2022/07/20 00:05:32;;;;;;;;;20.33;19.33;;;;;30.53;38.34;101148.22;5076447;27;46310;-79
2022/07/20 00:07:57;;;;;;;;;17.33;17.33;;;;;30.48;38.25;101152.41;5079953;27;45401;-79
2022/07/20 00:13:07;;;;;;;;;19.67;16.33;;;;;30.46;38.33;101160.00;5077035;27;45422;-80
2022/07/20 00:15:32;;;;;;;;;17.00;17.00;;;;;30.34;38.62;101155.13;5076421;27;45617;-80
2022/07/20 00:17:58;;;;;;;;;17.00;16.67;;;;;30.43;39.01;101165.00;5079751;27;45514;-79
2022/07/20 00:20:23;;;;;;;;;19.67;17.00;;;;;30.42;42.60;101199.94;5094470;27;45932;-80
2022/07/20 00:22:48;;;;;;;;;16.00;14.67;;;;;30.37;41.11;101223.50;5084997;27;45371;-79
2022/07/20 00:25:14;;;;;;;;;15.67;15.67;;;;;30.27;41.53;101232.03;5064572;28;48074;-79
2022/07/20 00:27:39;;;;;;;;;15.67;15.67;;;;;30.15;41.48;101245.31;5061537;27;45441;-80
2022/07/20 00:30:05;;;;;;;;;15.67;15.67;;;;;30.12;41.99;101253.94;5084876;27;45842;-79
2022/07/20 00:32:36;;;;;;;;;20.33;17.67;;;;;30.14;42.20;101306.03;5076268;27;45467;-80
2022/07/20 00:35:02;;;;;;;;;22.67;21.33;;;;;30.03;42.88;101323.78;5086992;27;47007;-78
2022/07/20 00:37:27;;;;;;;;;18.67;17.67;;;;;30.01;43.93;101337.69;5091531;27;45439;-79
2022/07/20 00:39:53;;;;;;;;;18.67;17.67;;;;;29.94;44.76;101331.19;5059543;28;45526;-78
2022/07/20 00:42:18;;;;;;;;;19.00;16.67;;;;;29.83;44.94;101332.47;5076605;27;45482;-78
2022/07/20 00:44:43;;;;;;;;;23.00;19.33;;;;;29.75;44.90;101329.75;5090037;27;46271;-78
2022/07/20 00:47:09;;;;;;;;;17.67;15.67;;;;;29.67;45.87;101292.19;5076152;27;45465;-77
2022/07/20 00:49:34;;;;;;;;;19.00;18.00;;;;;29.66;45.66;101273.97;5057813;27;45677;-78
2022/07/20 00:51:59;;;;;;;;;20.33;16.33;;;;;29.67;46.89;101252.88;5082809;27;45427;-78
2022/07/20 00:54:25;;;;;;;;;19.33;18.00;;;;;29.63;47.52;101215.75;5083760;27;45618;-78
2022/07/20 00:56:50;;;;;;;;;19.33;19.00;;;;;29.51;49.12;101185.09;5075906;27;45548;-78
2022/07/20 00:59:15;;;;;;;;;20.67;19.33;;;;;29.53;48.32;101201.41;5076319;27;45728;-78
2022/07/20 01:01:41;;;;;;;;;25.67;23.33;;;;;29.48;49.98;101209.31;5075464;27;45821;-78
2022/07/20 01:04:06;;;;;;;;;28.00;27.00;;;;;29.36;51.18;101195.13;5075229;27;46081;-78
2022/07/20 01:06:32;;;;;;;;;30.33;28.33;;;;;29.37;51.25;101200.44;5086017;27;45623;-78
2022/07/20 01:08:58;;;;;;;;;34.33;30.33;;;;;29.26;52.27;101184.34;5107177;27;45496;-78
2022/07/20 01:11:24;;;;;;;;;42.67;35.00;;;;;29.25;51.90;101183.50;5093771;27;45536;-78
2022/07/20 01:13:50;;;;;;;;;39.67;35.67;;;;;29.13;52.34;101146.50;5094209;27;46539;-78
2022/07/20 01:16:15;;;;;;;;;34.67;31.67;;;;;29.06;53.42;101131.75;5083208;27;45523;-78
2022/07/20 01:18:40;;;;;;;;;36.33;33.00;;;;;29.17;53.46;101128.66;5075736;27;45703;-78
2022/07/20 01:21:07;;;;;;;;;41.00;34.67;;;;;29.09;53.01;101125.09;5075896;27;45407;-78
2022/07/20 01:23:33;;;;;;;;;44.00;36.33;;;;;29.13;53.20;101129.19;5102190;27;46605;-78
2022/07/20 01:25:59;;;;;;;;;39.00;33.33;;;;;29.09;52.31;101136.91;5075586;27;45388;-78
2022/07/20 01:28:26;;;;;;;;;36.33;31.00;;;;;29.08;52.17;101162.66;5075440;27;45372;-78
2022/07/20 01:30:52;;;;;;;;;40.33;31.00;;;;;29.04;52.16;101170.34;5075914;27;45491;-78
2022/07/20 01:33:18;;;;;;;;;46.67;36.33;;;;;28.95;53.44;101165.94;5069747;27;46035;-78
2022/07/20 01:35:43;;;;;;;;;36.00;32.00;;;;;28.92;52.49;101163.56;5083609;27;45435;-78
2022/07/20 01:38:09;;;;;;;;;41.67;34.67;;;;;28.95;52.35;101179.66;5095680;27;45468;-78
2022/07/20 01:40:34;;;;;;;;;46.33;37.67;;;;;28.92;52.21;101148.97;5102425;27;45337;-78
2022/07/20 01:43:00;;;;;;;;;33.00;31.33;;;;;28.86;52.11;101138.69;5075159;27;46122;-78
2022/07/20 01:45:25;;;;;;;;;47.00;38.33;;;;;28.81;51.79;101145.56;5089512;27;45430;-78
2022/07/20 01:47:50;;;;;;;;;43.67;37.00;;;;;28.82;51.69;101165.63;5075286;27;45441;-77
2022/07/20 01:50:16;;;;;;;;;44.67;37.00;;;;;28.79;51.95;101169.56;5076803;27;45457;-78
2022/07/20 01:52:41;;;;;;;;;46.75;40.00;;;;;28.76;51.60;101171.84;5076374;27;46663;-78
2022/07/20 01:55:07;;;;;;;;;49.75;39.25;;;;;28.75;51.30;101160.00;5075503;27;45438;-78
2022/07/20 01:57:33;;;;;;;;;48.00;38.00;;;;;28.74;51.10;101172.00;5075265;27;45528;-78
2022/07/20 01:59:58;;;;;;;;;43.67;35.00;;;;;28.73;51.23;101189.50;5075343;27;45516;-78
2022/07/20 02:02:24;;;;;;;;;48.00;36.75;;;;;28.67;51.24;101192.09;5074435;27;46322;-78
2022/07/20 02:04:49;;;;;;;;;43.75;37.00;;;;;28.67;50.57;101217.63;5075065;27;45458;-78
2022/07/20 02:07:14;;;;;;;;;49.00;39.50;;;;;28.60;50.78;101255.00;5082945;27;45417;-78
2022/07/20 02:09:40;;;;;;;;;51.25;40.00;;;;;28.61;50.68;101278.66;5082511;27;45631;-75
2022/07/20 02:12:07;;;;;;;;;51.00;39.00;;;;;28.60;50.25;101294.28;5074761;27;46598;-75
2022/07/20 02:14:32;;;;;;;;;46.00;39.00;;;;;28.58;50.47;101296.31;5104285;27;45569;-75
2022/07/20 02:16:58;;;;;;;;;47.67;39.00;;;;;28.58;50.30;101265.31;5078293;27;45566;-75
2022/07/20 02:19:23;;;;;;;;;46.33;38.67;;;;;28.58;50.93;101237.88;5074647;27;45609;-75
2022/07/20 02:21:48;;;;;;;;;37.33;34.33;;;;;28.51;51.29;101237.69;5060343;27;45417;-75
2022/07/20 02:24:14;;;;;;;;;51.33;40.33;;;;;28.55;50.94;101266.50;5084127;27;45527;-75
2022/07/20 02:26:39;;;;;;;;;22.25;18.25;;;;;28.58;51.76;101277.13;5078481;27;45438;-75
2022/07/20 02:29:04;;;;;;;;;46.00;38.67;;;;;28.54;51.80;101275.78;5078638;27;45486;-75
2022/07/20 02:31:30;;;;;;;;;46.00;39.33;;;;;28.55;51.25;101282.13;5077674;27;45837;-75
2022/07/20 02:33:55;;;;;;;;;43.67;37.33;;;;;28.51;51.67;101261.53;5078403;27;45490;-75
2022/07/20 02:36:20;;;;;;;;;48.33;39.67;;;;;28.47;51.58;101271.13;5077959;27;45782;-75
2022/07/20 02:38:46;;;;;;;;;52.00;41.67;;;;;28.41;51.21;101287.22;5078255;27;45512;-75
2022/07/20 02:41:11;;;;;;;;;48.00;37.67;;;;;28.45;51.60;101293.22;5077906;27;46510;-75
2022/07/20 02:43:37;;;;;;;;;47.00;39.67;;;;;28.32;51.30;101280.00;5077667;27;45497;-75
2022/07/20 02:46:02;;;;;;;;;46.00;38.25;;;;;28.34;51.17;101277.94;5083529;27;45413;-75
2022/07/20 02:48:28;;;;;;;;;48.00;40.00;;;;;28.24;50.89;101274.53;5078091;27;45471;-75
2022/07/20 02:50:53;;;;;;;;;49.00;39.33;;;;;28.35;51.12;101311.72;5077793;27;46025;-75
2022/07/20 02:53:19;;;;;;;;;46.00;38.00;;;;;28.29;50.76;101307.78;5059744;27;45546;-75
2022/07/20 02:55:44;;;;;;;;;49.00;39.33;;;;;28.29;50.98;101316.00;5078046;27;45559;-76
2022/07/20 02:58:11;;;;;;;;;51.75;41.00;;;;;28.25;51.23;101322.84;5092039;27;45419;-76
2022/07/20 03:00:37;;;;;;;;;47.75;39.50;;;;;28.24;51.41;101332.09;5083163;27;45480;-76
2022/07/20 03:03:03;;;;;;;;;42.33;36.67;;;;;28.19;51.70;101354.53;5086189;27;45469;-76
2022/07/20 03:05:29;;;;;;;;;48.00;40.75;;;;;28.17;51.66;101369.44;5077611;27;45597;-77
2022/07/20 03:07:55;;;;;;;;;47.00;39.00;;;;;28.10;51.73;101379.34;5082933;27;45442;-77
2022/07/20 03:10:20;;;;;;;;;47.00;38.67;;;;;28.11;52.39;101384.66;5077332;27;47156;-80
2022/07/20 03:12:46;;;;;;;;;43.33;36.67;;;;;28.03;52.04;101381.91;5082539;27;45528;-81
2022/07/20 03:15:12;;;;;;;;;51.00;41.00;;;;;28.04;51.62;101391.81;5080668;27;45655;-81
2022/07/20 03:17:47;;;;;;;;;44.33;37.00;;;;;28.05;52.05;101404.53;5077652;27;45596;-80
2022/07/20 03:20:18;;;;;;;;;45.67;37.00;;;;;28.07;51.89;101412.56;5077361;27;46455;-81
2022/07/20 03:22:43;;;;;;;;;47.67;39.00;;;;;28.08;51.69;101422.50;5059681;27;45613;-81
2022/07/20 03:25:09;;;;;;;;;38.50;34.00;;;;;28.05;51.58;101420.97;5077035;27;45384;-80
2022/07/20 03:27:35;;;;;;;;;50.50;42.00;;;;;27.94;51.64;101381.00;5077791;27;45499;-79
2022/07/20 03:30:00;;;;;;;;;50.75;42.00;;;;;28.02;51.76;101396.59;5076993;27;45867;-80
2022/07/20 03:32:25;;;;;;;;;46.00;37.67;;;;;28.01;52.11;101389.44;5077176;27;45388;-80
2022/07/20 03:34:51;;;;;;;;;46.33;37.67;;;;;27.95;52.35;101388.19;5085485;27;45359;-81
2022/07/20 03:37:16;;;;;;;;;49.00;39.67;;;;;27.95;52.05;101387.34;5077640;27;45410;-80
2022/07/20 03:39:41;;;;;;;;;48.50;39.50;;;;;27.86;52.29;101366.41;5076847;27;46521;-80
2022/07/20 03:42:07;;;;;;;;;50.67;39.67;;;;;27.90;52.35;101378.75;5077159;27;45434;-81
2022/07/20 03:44:32;;;;;;;;;45.00;37.67;;;;;27.96;52.14;101400.88;5055574;27;45433;-80
2022/07/20 03:46:57;;;;;;;;;44.00;37.67;;;;;27.95;52.51;101403.78;5078136;27;45460;-80
2022/07/20 03:49:23;;;;;;;;;48.67;39.67;;;;;27.88;52.57;101372.56;5087949;27;45729;-80
2022/07/20 03:51:48;;;;;;;;;47.00;37.67;;;;;27.95;54.13;101401.88;5079839;27;45459;-80
2022/07/20 03:54:14;;;;;;;;;51.00;41.67;;;;;27.81;55.44;101396.16;5077166;27;45414;-80
2022/07/20 03:56:42;;;;;;;;;46.00;38.67;;;;;27.88;56.38;101428.22;5077102;27;45383;-81
2022/07/20 03:59:09;;;;;;;;;11.00;7.50;;;;;27.78;57.40;101432.94;5076653;27;46194;-79
2022/07/20 04:01:35;;;;;;;;;51.00;40.00;;;;;27.76;57.77;101440.47;5076635;27;45478;-80
2022/07/20 04:04:01;;;;;;;;;49.00;40.67;;;;;27.66;58.93;101457.03;5076572;27;45529;-79
2022/07/20 04:06:26;;;;;;;;;48.33;39.67;;;;;27.58;61.68;101467.91;5079558;27;45504;-79
2022/07/20 04:08:51;;;;;;;;;45.67;35.33;;;;;27.43;61.18;101466.78;5079076;27;46354;-77
2022/07/20 04:11:17;;;;;;;;;37.67;32.67;;;;;27.30;58.26;101446.19;5064737;28;45900;-77
2022/07/20 04:13:42;;;;;;;;;35.33;32.00;;;;;27.24;59.81;101444.06;5097498;27;45523;-76
2022/07/20 04:16:07;;;;;;;;;45.00;34.33;;;;;27.12;61.28;101412.47;5096347;27;45602;-77
2022/07/20 04:18:33;;;;;;;;;37.33;32.00;;;;;27.17;60.21;101418.31;5076512;27;45916;-76
2022/07/20 04:20:58;;;;;;;;;36.33;32.33;;;;;27.14;61.42;101429.59;5076313;27;45378;-76
2022/07/20 04:23:24;;;;;;;;;40.00;34.67;;;;;27.08;61.50;101411.91;5076257;27;45830;-76
2022/07/20 04:25:49;;;;;;;;;36.00;33.33;;;;;27.04;60.66;101420.59;5076886;27;45477;-76
2022/07/20 04:28:14;;;;;;;;;44.00;34.00;;;;;26.97;60.79;101412.16;5076112;27;46768;-76
2022/07/20 04:30:40;;;;;;;;;39.67;32.33;;;;;26.78;62.30;101363.94;5052781;27;45430;-76
2022/07/20 04:33:05;;;;;;;;;38.00;33.33;;;;;26.83;63.22;101363.47;5079457;27;45376;-76
2022/07/20 04:35:31;;;;;;;;;37.00;33.00;;;;;26.86;62.71;101363.19;5075893;27;45371;-76
2022/07/20 04:37:56;;;;;;;;;30.00;29.67;;;;;26.88;63.63;101358.41;5076929;27;47189;-76
2022/07/20 04:40:22;;;;;;;;;32.33;31.67;;;;;26.86;62.91;101355.84;5089785;27;45478;-76
2022/07/20 04:42:47;;;;;;;;;28.00;24.33;;;;;26.75;60.44;101336.94;5076520;27;45441;-78
2022/07/20 04:45:12;;;;;;;;;29.67;27.33;;;;;26.73;60.83;101322.53;5082226;27;45322;-76
2022/07/20 04:47:38;;;;;;;;;27.67;25.67;;;;;26.67;59.39;101321.31;5076265;27;46157;-76
2022/07/20 04:50:03;;;;;;;;;18.67;17.33;;;;;26.43;58.10;101310.13;5075826;27;45528;-76
2022/07/20 04:52:29;;;;;;;;;22.67;18.67;;;;;26.42;57.93;101328.41;5076306;27;45478;-76
2022/07/20 04:54:54;;;;;;;;;21.67;20.67;;;;;26.54;60.56;101348.19;5058033;27;45558;-76
2022/07/20 04:57:19;;;;;;;;;28.00;25.00;;;;;26.51;61.17;101373.09;5075789;27;46330;-76
2022/07/20 04:59:45;;;;;;;;;28.00;24.00;;;;;26.50;58.96;101385.03;5074846;27;45501;-78
2022/07/20 05:02:10;;;;;;;;;24.67;20.67;;;;;26.45;60.19;101401.03;5088842;27;45565;-76
2022/07/20 05:04:35;;;;;;;;;23.00;20.00;;;;;26.38;59.79;101427.28;5088085;27;45633;-77
2022/07/20 05:07:01;;;;;;;;;19.00;19.00;;;;;26.39;58.80;101450.88;5088233;27;47275;-77
2022/07/20 05:09:26;;;;;;;;;24.67;20.67;;;;;26.33;58.29;101447.72;5086826;27;45513;-85
2022/07/20 05:11:51;;;;;;;;;23.33;22.00;;;;;26.25;57.97;101435.84;5081098;27;45833;-87
2022/07/20 05:14:17;;;;;;;;;21.67;20.00;;;;;26.18;57.10;101415.63;5088874;27;45561;-87
2022/07/20 05:16:42;;;;;;;;;24.67;18.33;;;;;26.16;57.04;101413.03;5088654;27;46253;-90
2022/07/20 05:19:09;;;;;;;;;20.67;20.67;;;;;26.05;56.20;101424.16;5079513;27;45496;-86
2022/07/20 05:21:34;;;;;;;;;20.00;18.00;;;;;26.01;58.36;101412.69;5089357;27;45577;-88
2022/07/20 05:24:00;;;;;;;;;16.00;16.00;;;;;25.95;57.30;101426.94;5095923;27;45466;-87
2022/07/20 05:26:25;;;;;;;;;25.33;22.00;;;;;25.79;57.42;101393.91;5095804;27;46718;-89
2022/07/20 05:28:51;;;;;;;;;14.33;12.33;;;;;25.84;58.83;101403.38;5095455;27;45426;-89
2022/07/20 05:31:16;;;;;;;;;23.00;21.67;;;;;25.84;59.68;101378.78;5077064;27;45555;-89
2022/07/20 05:33:42;;;;;;;;;21.00;19.33;;;;;25.73;61.07;101323.50;5082939;27;45387;-88
2022/07/20 05:36:09;;;;;;;;;24.00;20.67;;;;;25.77;61.82;101317.59;5093661;27;45422;-88
2022/07/20 05:38:35;;;;;;;;;23.00;19.67;;;;;25.74;61.94;101295.22;5095335;27;45544;-88
2022/07/20 05:41:00;;;;;;;;;24.67;22.00;;;;;25.76;61.36;101306.84;5094847;27;45587;-87
2022/07/20 05:43:26;;;;;;;;;21.00;18.00;;;;;25.67;60.96;101328.56;5095634;27;45509;-84
2022/07/20 05:45:51;;;;;;;;;22.33;21.00;;;;;25.75;61.35;101363.31;5094968;27;47286;-82
2022/07/20 05:48:17;;;;;;;;;21.67;19.00;;;;;25.69;61.14;101381.16;5090940;27;45497;-82
2022/07/20 05:50:43;;;;;;;;;23.00;16.33;;;;;25.65;60.47;101381.63;5072729;27;45623;-82
2022/07/20 05:53:10;;;;;;;;;19.33;18.00;;;;;25.70;61.39;101390.22;5099308;27;45500;-82
2022/07/20 05:55:37;;;;;;;;;19.33;18.67;;;;;25.73;60.50;101389.03;5086119;27;46275;-82
2022/07/20 05:58:04;;;;;;;;;21.00;20.33;;;;;25.75;59.57;101396.06;5096567;27;45430;-82
2022/07/20 06:00:30;;;;;;;;;19.67;18.67;;;;;25.71;58.52;101391.94;5098706;27;45582;-82
2022/07/20 06:02:56;;;;;;;;;23.00;18.67;;;;;25.68;59.08;101404.03;5080215;27;45670;-82
2022/07/20 06:05:22;;;;;;;;;20.33;20.33;;;;;25.69;59.95;101393.97;5097789;27;46345;-81
2022/07/20 06:07:47;;;;;;;;;20.33;19.33;;;;;25.69;58.45;101389.34;5097752;27;45437;-82
2022/07/20 06:10:13;;;;;;;;;19.00;18.33;;;;;25.56;57.45;101380.63;5097164;27;45645;-75
2022/07/20 06:12:38;;;;;;;;;17.67;17.67;;;;;25.64;56.77;101410.78;5099227;27;45556;-75
2022/07/20 06:15:04;;;;;;;;;18.33;16.33;;;;;25.57;57.95;101390.56;5090654;27;47146;-75
2022/07/20 06:17:38;;;;;;;;;25.00;19.67;;;;;25.68;58.98;101392.22;5096252;27;45521;-75
2022/07/20 06:20:07;;;;;;;;;21.67;18.33;;;;;25.73;57.37;101387.19;5091621;27;45505;-75
2022/07/20 06:22:33;;;;;;;;;20.67;17.67;;;;;25.73;57.32;101399.97;5089110;27;45696;-75
2022/07/20 06:24:59;;;;;;;;;25.00;21.00;;;;;25.66;56.69;101407.88;5080177;27;45617;-75
2022/07/20 06:27:24;;;;;;;;;20.33;18.67;;;;;25.57;57.76;101417.84;5087828;27;45601;-75
2022/07/20 06:29:50;;;;;;;;;14.67;14.67;;;;;25.57;56.89;101441.56;5091379;27;45415;-75
2022/07/20 06:32:15;;;;;;;;;20.67;19.67;;;;;25.56;56.69;101465.25;5072000;27;45622;-75
2022/07/20 06:34:40;;;;;;;;;77.25;63.75;;;;;25.52;56.54;101474.78;5097904;27;47153;-75
2022/07/20 06:37:05;;;;;;;;;17.00;13.33;;;;;25.49;56.25;101477.78;5089980;27;45761;-75
2022/07/20 06:39:31;;;;;;;;;21.67;17.00;;;;;25.44;56.11;101483.69;5090914;27;45485;-75
2022/07/20 06:41:56;;;;;;;;;17.33;17.33;;;;;25.46;55.92;101476.22;5078076;27;45552;-75
2022/07/20 06:44:21;;;;;;;;;20.00;16.67;;;;;25.27;56.65;101446.22;5071300;27;47109;-75
2022/07/20 06:46:47;;;;;;;;;20.00;18.33;;;;;25.37;56.91;101462.59;5079781;27;45461;-75
2022/07/20 06:49:14;;;;;;;;;17.33;15.67;;;;;25.31;56.58;101465.88;5088868;27;45387;-75
2022/07/20 06:51:39;;;;;;;;;17.33;16.00;;;;;25.27;57.43;101451.69;5077929;27;45463;-75
2022/07/20 06:54:04;;;;;;;;;18.00;16.33;;;;;25.25;57.56;101443.63;5077712;27;46111;-74
2022/07/20 06:56:30;;;;;;;;;23.00;19.00;;;;;25.24;57.33;101449.25;5059519;28;45564;-74
2022/07/20 06:58:55;;;;;;;;;13.00;11.67;;;;;25.15;56.82;101434.56;5076832;27;48793;-74
2022/07/20 07:01:20;;;;;;;;;17.33;15.33;;;;;25.22;56.36;101443.09;5078101;27;45340;-75
2022/07/20 07:03:45;;;;;;;;;18.67;14.33;;;;;25.20;56.58;101443.22;5077379;27;45415;-74
2022/07/20 07:06:11;;;;;;;;;17.00;16.00;;;;;25.23;56.76;101437.44;5059609;27;45578;-75
2022/07/20 07:08:36;;;;;;;;;20.67;15.67;;;;;25.11;56.64;101415.91;5082160;27;45722;-82
2022/07/20 07:11:01;;;;;;;;;12.67;11.67;;;;;25.17;56.83;101456.25;5078122;27;45481;-82
2022/07/20 07:13:27;;;;;;;;;15.67;15.67;;;;;25.11;57.56;101463.16;5094563;27;45509;-84
2022/07/20 07:15:52;;;;;;;;;18.00;15.67;;;;;25.04;57.99;101440.19;5083096;27;45525;-81
2022/07/20 07:18:17;;;;;;;;;22.67;16.67;;;;;25.01;58.61;101443.22;5078046;27;45434;-82
2022/07/20 07:20:43;;;;;;;;;16.00;12.33;;;;;25.03;58.45;101458.41;5077541;27;45535;-81
2022/07/20 07:23:08;;;;;;;;;18.67;16.00;;;;;25.02;59.06;101474.91;5082549;27;45687;-84
2022/07/20 07:25:33;;;;;;;;;19.33;17.33;;;;;24.88;58.00;101481.66;5086147;27;45506;-82
2022/07/20 07:27:59;;;;;;;;;15.67;14.67;;;;;24.81;59.49;101475.91;5077698;27;45413;-82
2022/07/20 07:30:24;;;;;;;;;22.33;17.67;;;;;24.58;58.82;101433.56;5077653;27;45573;-81
2022/07/20 07:32:49;;;;;;;;;18.33;18.33;;;;;24.74;61.55;101457.53;5077943;27;47236;-83
2022/07/20 07:35:15;;;;;;;;;20.67;18.33;;;;;24.66;61.93;101452.81;5079197;27;45466;-81
2022/07/20 07:37:40;;;;;;;;;20.33;17.33;;;;;24.44;63.10;101432.94;5078321;27;45454;-84
2022/07/20 07:40:06;;;;;;;;;15.33;15.00;;;;;24.65;63.06;101472.88;5077937;27;45459;-82
2022/07/20 07:42:32;;;;;;;;;18.33;17.00;;;;;24.61;61.66;101468.72;5077512;27;45533;-82
2022/07/20 07:44:59;;;;;;;;;19.33;18.67;;;;;24.75;62.11;101517.38;5082266;27;45502;-84
2022/07/20 07:47:24;;;;;;;;;21.33;20.00;;;;;24.75;60.58;101516.53;5077188;27;45494;-84
2022/07/20 07:49:50;;;;;;;;;21.00;20.33;;;;;24.80;60.75;101530.59;5077114;27;45344;-84
2022/07/20 07:52:15;;;;;;;;;21.33;18.00;;;;;24.84;60.59;101529.28;5058938;27;47533;-83
2022/07/20 07:54:40;;;;;;;;;18.67;15.33;;;;;24.92;60.54;101524.00;5087496;27;45489;-82
2022/07/20 07:57:06;;;;;;;;;18.00;15.67;;;;;24.99;60.24;101519.72;5060086;28;45537;-84
2022/07/20 07:59:31;;;;;;;;;20.00;18.00;;;;;25.08;60.90;101522.59;5087878;27;45413;-84
2022/07/20 08:01:56;;;;;;;;;15.00;15.00;;;;;25.04;60.32;101517.41;5080118;27;47102;-82
2022/07/20 08:04:22;;;;;;;;;23.67;20.00;;;;;25.05;60.48;101510.09;5058595;28;45532;-81
2022/07/20 08:06:49;;;;;;;;;17.67;17.67;;;;;25.09;60.24;101524.31;5063393;27;45618;-84
2022/07/20 08:09:14;;;;;;;;;17.33;15.00;;;;;25.14;59.79;101508.38;5077650;27;45434;-81
2022/07/20 08:11:40;;;;;;;;;18.00;17.00;;;;;25.08;57.71;101484.41;5075241;27;45428;-82
2022/07/20 08:14:05;;;;;;;;;20.00;17.67;;;;;25.35;57.81;101519.16;5085225;27;45528;-82
2022/07/20 08:16:31;;;;;;;;;17.67;16.33;;;;;25.46;58.03;101516.28;5090891;27;46057;-85
2022/07/20 08:18:57;;;;;;;;;15.00;15.00;;;;;25.53;57.39;101505.66;5076784;27;45390;-82
2022/07/20 08:21:22;;;;;;;;;17.67;17.67;;;;;25.67;58.12;101538.81;5072400;28;46586;-84
2022/07/20 08:23:47;;;;;;;;;17.00;14.00;;;;;25.66;56.62;101538.94;5065591;28;45685;-83
2022/07/20 08:26:13;;;;;;;;;17.00;16.67;;;;;25.65;56.27;101540.84;5071502;27;45497;-80
2022/07/20 08:28:39;;;;;;;;;14.33;13.67;;;;;25.66;55.88;101541.69;5076807;27;45514;-81
2022/07/20 08:31:05;;;;;;;;;14.00;14.00;;;;;25.73;55.52;101542.84;5091077;27;46648;-86
2022/07/20 08:33:31;;;;;;;;;15.67;15.33;;;;;25.70;55.19;101522.13;5071591;28;45840;-82
2022/07/20 08:35:56;;;;;;;;;13.00;13.00;;;;;25.59;54.61;101508.69;5058302;28;45418;-80
2022/07/20 08:38:22;;;;;;;;;13.00;13.00;;;;;25.79;54.44;101531.31;5090641;27;45482;-80
2022/07/20 08:40:48;;;;;;;;;19.33;16.33;;;;;25.87;54.85;101527.88;5084219;27;45544;-80
2022/07/20 08:43:14;;;;;;;;;13.67;13.67;;;;;25.78;53.50;101526.88;5061708;27;45501;-80
2022/07/20 08:45:40;;;;;;;;;19.67;14.00;;;;;25.76;55.23;101528.03;5081812;27;45513;-80
2022/07/20 08:48:10;;;;;;;;;10.33;10.33;;;;;25.67;53.92;101529.78;5090475;27;45472;-78
2022/07/20 08:50:36;;;;;;;;;12.00;11.33;;;;;25.56;53.92;101527.19;5075874;27;46124;-82
2022/07/20 08:53:02;;;;;;;;;11.00;11.00;;;;;25.57;54.45;101539.88;5075971;27;45696;-80
2022/07/20 08:55:29;;;;;;;;;12.00;12.00;;;;;25.58;54.30;101542.44;5075968;27;45485;-81
2022/07/20 08:57:54;;;;;;;;;10.33;10.33;;;;;25.56;53.53;101546.31;5058474;28;45556;-79
2022/07/20 09:00:20;;;;;;;;;11.67;11.67;;;;;25.59;53.83;101546.91;5075592;27;45546;-78
2022/07/20 09:02:51;;;;;;;;;14.00;11.00;;;;;25.62;54.05;101540.28;5075502;27;45466;-79
2022/07/20 09:05:17;;;;;;;;;9.00;9.00;;;;;25.64;53.76;101541.84;5075954;27;45459;-79
2022/07/20 09:07:45;;;;;;;;;12.00;9.67;;;;;25.68;53.23;101531.47;5062776;28;45578;-78
2022/07/20 09:10:14;;;;;;;;;9.00;9.00;;;;;25.68;53.19;101504.19;5075597;27;47478;-80
2022/07/20 09:12:52;;;;;;;;;7.00;7.00;;;;;26.10;52.82;101539.31;5079347;27;45396;-79
2022/07/20 09:15:27;;;;;;;;;8.33;8.33;;;;;26.22;52.47;101532.69;5095376;27;45406;-79
2022/07/20 09:18:06;;;;;;;;;7.67;7.00;;;;;26.32;52.84;101508.88;5090250;27;45452;-79
2022/07/20 09:20:33;;;;;;;;;9.00;7.67;;;;;27.00;51.08;101493.09;5075674;27;46104;-79
2022/07/20 09:23:04;;;;;;;;;10.00;9.00;;;;;27.49;50.09;101512.72;5074686;27;45490;-79
2022/07/20 09:25:30;;;;;;;;;7.67;7.67;;;;;27.43;48.37;101516.09;5086297;27;45478;-78
2022/07/20 09:27:56;;;;;;;;;9.33;8.67;;;;;27.60;48.86;101530.75;5096647;27;46489;-78
2022/07/20 09:30:22;;;;;;;;;9.00;8.00;;;;;27.73;47.25;101536.69;5086950;27;46349;-78
2022/07/20 09:32:50;;;;;;;;;7.67;6.33;;;;;27.44;47.92;101526.00;5075037;27;45608;-79
2022/07/20 09:35:17;;;;;;;;;6.33;6.33;;;;;27.12;48.16;101495.44;5075859;27;45521;-78
2022/07/20 09:37:42;;;;;;;;;7.67;7.33;;;;;27.21;48.52;101517.44;5075907;27;45384;-81
2022/07/20 09:40:08;;;;;;;;;6.00;6.00;;;;;27.15;49.41;101521.63;5089669;27;46133;-79
2022/07/20 09:42:43;;;;;;;;;6.67;6.67;;;;;26.97;49.44;101529.81;5075481;27;45730;-79
2022/07/20 09:45:18;;;;;;;;;7.67;6.67;;;;;26.82;49.66;101537.69;5080837;27;45458;-79
2022/07/20 09:48:04;;;;;;;;;8.00;5.67;;;;;26.67;49.44;101528.31;5075438;27;45490;-83
2022/07/20 09:50:41;;;;;;;;;6.33;5.67;;;;;26.49;49.50;101520.88;5075187;27;46261;-82
2022/07/20 09:53:08;;;;;;;;;6.00;4.67;;;;;26.49;50.21;101539.16;5075371;27;45418;-79
2022/07/20 09:55:35;;;;;;;;;7.33;7.33;;;;;26.44;50.31;101545.09;5075263;27;45487;-81
2022/07/20 09:58:01;;;;;;;;;3.33;3.00;;;;;26.39;50.60;101555.63;5075641;27;45487;-79
2022/07/20 10:00:28;;;;;;;;;6.00;5.00;;;;;26.36;49.97;101539.50;5056291;28;47027;-77
2022/07/20 10:02:56;;;;;;;;;5.67;5.00;;;;;26.21;50.09;101530.94;5075021;28;45540;-79
2022/07/20 10:05:22;;;;;;;;;5.67;5.67;;;;;26.33;50.40;101540.66;5074840;27;45486;-80
2022/07/20 10:07:48;;;;;;;;;5.67;4.67;;;;;26.32;50.73;101538.94;5080307;27;45772;-81
2022/07/20 10:10:14;;;;;;;;;4.33;4.33;;;;;26.23;50.47;101533.53;5074914;27;47468;-73
2022/07/20 10:12:40;;;;;;;;;5.00;4.00;;;;;26.08;50.45;101506.69;5078532;27;45723;-73
2022/07/20 10:15:16;;;;;;;;;7.00;5.33;;;;;26.22;50.38;101540.88;5087788;27;45444;-74
2022/07/20 10:17:44;;;;;;;;;4.00;4.00;;;;;26.21;50.65;101551.94;5081205;27;45458;-73
2022/07/20 10:20:33;;;;;;;;;5.00;5.00;;;;;26.23;50.34;101549.94;5086393;27;47264;-74
2022/07/20 10:23:28;;;;;;;;;4.00;4.00;;;;;26.37;50.94;101538.50;5089218;27;45467;-74
2022/07/20 10:25:55;;;;;;;;;5.00;4.00;;;;;26.42;49.95;101547.09;5061582;27;45425;-74
2022/07/20 10:28:23;;;;;;;;;6.67;4.33;;;;;26.42;50.07;101551.72;5075101;27;45414;-74
2022/07/20 10:30:52;;;;;;;;;7.33;6.33;;;;;26.40;49.98;101543.66;5087019;27;46099;-74
2022/07/20 10:33:18;;;;;;;;;4.00;4.00;;;;;26.47;49.92;101539.31;5075868;27;45555;-74
2022/07/20 10:35:47;;;;;;;;;7.67;5.33;;;;;26.38;49.79;101528.41;5088972;27;45497;-74
2022/07/20 10:38:17;;;;;;;;;6.00;4.67;;;;;26.48;49.70;101540.16;5081236;27;45431;-74
2022/07/20 10:44:20;;;;;;;;;7.33;6.67;;;;;26.39;50.10;101566.56;5091165;27;45687;-74
2022/07/20 10:46:47;;;;;;;;;4.33;4.33;;;;;26.38;50.38;101553.03;5077864;27;45466;-74
2022/07/20 10:49:13;;;;;;;;;6.00;6.00;;;;;26.23;50.18;101534.38;5078549;27;45403;-73
2022/07/20 10:51:39;;;;;;;;;4.00;4.00;;;;;26.34;49.61;101560.69;5077593;27;46356;-73
2022/07/20 10:54:33;;;;;;;;;5.00;3.33;;;;;26.31;49.78;101561.81;5077962;27;45492;-73
2022/07/20 10:56:59;;;;;;;;;4.00;4.00;;;;;26.15;49.74;101537.00;5073974;28;45466;-74
2022/07/20 10:59:24;;;;;;;;;4.33;4.33;;;;;26.23;50.37;101560.88;5087974;27;45683;-73
2022/07/20 11:01:50;;;;;;;;;6.00;5.00;;;;;26.12;49.83;101550.97;5081939;27;46377;-74
2022/07/20 11:04:16;;;;;;;;;5.00;5.00;;;;;26.17;50.67;101562.31;5077697;27;45508;-73
2022/07/20 11:06:41;;;;;;;;;6.00;6.00;;;;;26.21;50.57;101571.94;5082236;27;45547;-74
2022/07/20 11:09:07;;;;;;;;;6.00;3.00;;;;;26.21;50.53;101574.66;5078527;27;45513;-83
2022/07/20 11:11:35;;;;;;;;;7.00;6.00;;;;;26.18;50.53;101576.84;5077448;27;46573;-84
2022/07/20 11:14:04;;;;;;;;;9.00;5.33;;;;;26.22;50.81;101572.78;5103869;27;45519;-81